Time;durP1;ratioP1;P1;durP2;ratioP2;P2;SDS_P1;SDS_P2;PMS_P1;PMS_P2;Temp;Humidity;BMP_temperature;BMP_pressure;BME280_temperature;BME280_humidity;BME280_pressure;Samples;Min_cycle;Max_cycle;Signal;HPM_P1;HPM_P2
2023/09/28 00:02:58;;;;;;;3.85;3.10;;;;;;;19.79;71.09;101054.69;3615953;39;20075;-66
2023/09/28 00:05:23;;;;;;;4.38;2.97;;;;;;;19.94;71.16;101089.53;3614371;39;20090;-67
2023/09/28 00:07:52;;;;;;;3.42;2.85;;;;;;;19.77;70.77;101056.72;3614491;39;20050;-66
2023/09/28 00:10:18;;;;;;;3.45;2.88;;;;;;;19.92;70.50;101085.25;3615367;39;20048;-66
2023/09/28 00:12:50;;;;;;;7.00;2.92;;;;;;;19.93;71.02;101089.69;3616003;39;20063;-67
2023/09/28 00:15:17;;;;;;;4.97;2.92;;;;;;;19.94;70.79;101096.84;3613959;39;20046;-66
2023/09/28 00:17:44;;;;;;;6.80;3.00;;;;;;;19.91;70.77;101086.22;3615800;39;20057;-67
2023/09/28 00:20:22;;;;;;;3.80;2.53;;;;;;;19.94;70.64;101096.84;3614856;39;20148;-65
2023/09/28 00:22:56;;;;;;;3.72;2.63;;;;;;;19.92;70.36;101093.44;3617874;39;20101;-66
2023/09/28 00:25:23;;;;;;;6.65;2.80;;;;;;;19.94;70.53;101096.84;3606614;39;20058;-65
2023/09/28 00:27:52;;;;;;;5.10;2.70;;;;;;;19.95;70.72;101112.25;3613732;39;20061;-65
2023/09/28 00:30:21;;;;;;;2.50;2.30;;;;;;;;;;3614116;39;20051;-66
2023/09/28 00:32:49;;;;;;;6.38;2.80;;;;;;;19.90;70.32;101099.03;3613517;39;20047;-65
2023/09/28 00:35:16;;;;;;;3.70;2.97;;;;;;;19.99;70.51;101112.78;3614518;39;20076;-66
2023/09/28 00:37:43;;;;;;;4.68;3.15;;;;;;;19.99;71.12;101110.06;3617206;39;20055;-65
2023/09/28 00:42:51;;;;;;;3.60;2.85;;;;;;;19.92;71.04;101120.72;3615637;39;20161;-68
2023/09/28 00:45:21;;;;;;;4.55;2.85;;;;;;;19.66;70.94;101076.84;3613849;39;20055;-66
2023/09/28 00:47:50;;;;;;;5.38;2.97;;;;;;;19.95;71.15;101134.06;3614782;39;20039;-67
2023/09/28 00:50:17;;;;;;;3.88;2.80;;;;;;;19.94;70.94;101129.59;3613181;39;20324;-65
2023/09/28 00:52:49;;;;;;;5.57;2.65;;;;;;;19.78;71.30;101104.81;3613546;39;20454;-67
2023/09/28 00:55:19;;;;;;;5.78;3.10;;;;;;;19.90;71.41;101120.00;3614545;39;20278;-66
2023/09/28 00:57:47;;;;;;;4.70;3.00;;;;;;;19.91;71.10;101118.97;3614327;39;20057;-65
2023/09/28 01:00:26;;;;;;;5.82;2.65;;;;;;;19.90;70.90;101114.53;3613704;39;20136;-65
2023/09/28 01:02:55;;;;;;;5.20;2.90;;;;;;;19.82;71.69;101108.94;3605732;39;20352;-66
2023/09/28 01:05:31;;;;;;;6.18;2.72;;;;;;;19.85;71.75;101111.38;3614079;39;20445;-65
2023/09/28 01:08:19;;;;;;;3.58;3.08;;;;;;;19.82;71.70;101108.94;3614720;39;20059;-65
2023/09/28 01:10:46;;;;;;;4.45;2.97;;;;;;;19.84;71.95;101115.13;3616665;39;20046;-67
2023/09/28 01:13:20;;;;;;;3.45;2.65;;;;;;;19.80;72.07;101117.31;3615526;39;20106;-68
2023/09/28 01:15:48;;;;;;;3.67;2.60;;;;;;;19.76;71.97;101115.88;3616176;39;20131;-65
2023/09/28 01:18:20;;;;;;;4.65;3.10;;;;;;;19.78;72.49;101121.19;3614856;39;20043;-65
2023/09/28 01:20:51;;;;;;;4.28;3.00;;;;;;;19.74;72.22;101115.16;3613879;39;20050;-66
2023/09/28 01:23:17;;;;;;;3.10;2.85;;;;;;;19.69;72.70;101118.34;3617545;39;20094;-66
2023/09/28 01:25:49;;;;;;;3.75;2.55;;;;;;;19.68;73.07;101130.25;3607777;39;20058;-67
2023/09/28 01:28:18;;;;;;;2.95;2.65;;;;;;;19.64;73.33;101128.81;3616897;39;20049;-66
2023/09/28 01:30:46;;;;;;;5.75;2.95;;;;;;;19.61;73.40;101125.50;3614480;39;20072;-65
2023/09/28 01:33:11;;;;;;;5.13;2.80;;;;;;;19.56;74.08;101125.06;3614615;39;20147;-68
2023/09/28 01:35:37;;;;;;;5.25;3.08;;;;;;;19.50;73.98;101126.50;3614036;39;20409;-66
2023/09/28 01:38:24;;;;;;;4.05;3.17;;;;;;;19.45;74.11;101124.22;3614495;39;20437;-66
2023/09/28 01:40:50;;;;;;;3.78;2.47;;;;;;;19.42;74.17;101112.75;3613051;39;20083;-67
2023/09/28 01:43:16;;;;;;;8.13;2.88;;;;;;;19.33;74.57;101110.88;3612420;39;20054;-66
2023/09/28 01:45:43;;;;;;;3.40;3.00;;;;;;;19.39;74.86;101134.84;3613792;39;20043;-66
2023/09/28 01:48:09;;;;;;;4.35;2.95;;;;;;;19.35;75.25;101130.69;3615265;39;20089;-66
2023/09/28 01:50:34;;;;;;;3.80;2.92;;;;;;;19.25;74.91;101126.09;3612796;39;20058;-66
2023/09/28 01:53:00;;;;;;;4.55;4.03;;;;;;;19.29;75.70;101134.00;3603483;39;20046;-67
2023/09/28 01:55:27;;;;;;;7.32;4.38;;;;;;;19.24;76.05;101132.53;3613619;39;21338;-67
2023/09/28 01:57:52;;;;;;;5.07;3.63;;;;;;;19.24;76.25;101135.28;3613736;39;20395;-67
2023/09/28 02:00:20;;;;;;;6.63;3.80;;;;;;;19.16;75.83;101135.16;3614197;39;20106;-67
2023/09/28 02:02:47;;;;;;;5.20;3.53;;;;;;;18.77;76.63;101075.19;3614355;39;20271;-67
2023/09/28 02:05:21;;;;;;;4.10;2.90;;;;;;;19.10;76.82;101145.75;3614113;39;20099;-67
2023/09/28 02:07:48;;;;;;;5.53;4.40;;;;;;;19.05;76.62;101146.16;3612358;39;20066;-68
2023/09/28 02:10:15;;;;;;;5.32;3.60;;;;;;;18.68;76.97;101096.91;3613858;39;20043;-67
2023/09/28 02:12:46;;;;;;;5.40;2.78;;;;;;;19.00;76.79;101151.19;3616939;39;20353;-66
2023/09/28 02:15:15;;;;;;;6.25;3.95;;;;;;;18.51;77.87;101073.94;3614368;39;20299;-67
2023/09/28 02:17:45;;;;;;;5.82;3.67;;;;;;;18.87;77.75;101145.13;3614518;39;20286;-66
2023/09/28 02:20:20;;;;;;;4.80;3.15;;;;;;;18.94;77.98;101157.22;3614317;39;20126;-66
2023/09/28 02:22:46;;;;;;;4.40;3.35;;;;;;;18.91;78.10;101152.91;3607907;39;20054;-66
2023/09/28 02:25:15;;;;;;;5.00;3.88;;;;;;;18.86;78.26;101148.88;3612058;39;20055;-67
2023/09/28 02:27:42;;;;;;;5.78;3.47;;;;;;;18.79;78.80;101149.44;3614650;39;20043;-66
2023/09/28 02:30:14;;;;;;;5.20;3.72;;;;;;;18.71;78.79;101151.97;3614241;39;20051;-66
2023/09/28 02:32:44;;;;;;;4.38;3.95;;;;;;;18.75;78.47;101158.03;3615871;39;20062;-66
2023/09/28 02:35:13;;;;;;;5.63;4.80;;;;;;;18.69;79.63;101151.25;3614187;39;20231;-67
2023/09/28 02:37:41;;;;;;;4.38;3.50;;;;;;;18.67;79.12;101166.00;3613357;39;20096;-65
2023/09/28 02:40:09;;;;;;;4.32;3.25;;;;;;;18.52;79.54;101143.72;3614152;39;20047;-67
2023/09/28 02:42:35;;;;;;;5.63;3.70;;;;;;;18.47;79.69;101137.84;3616624;39;20050;-68
2023/09/28 02:45:01;;;;;;;4.32;3.08;;;;;;;18.57;79.78;101160.53;3612973;39;20300;-66
2023/09/28 02:47:27;;;;;;;3.35;3.03;;;;;;;18.50;80.61;101156.63;3613679;39;20135;-67
2023/09/28 02:49:54;;;;;;;5.50;3.10;;;;;;;18.49;80.57;101165.78;3614981;39;20066;-68
2023/09/28 02:52:20;;;;;;;3.55;3.03;;;;;;;18.45;81.09;101167.06;3613244;39;20274;-69
2023/09/28 02:54:46;;;;;;;4.50;3.13;;;;;;;18.42;81.29;101167.34;3612654;39;20054;-68
2023/09/28 02:57:13;;;;;;;4.75;3.60;;;;;;;18.38;81.87;101165.91;3612234;39;20398;-66
2023/09/28 02:59:39;;;;;;;3.50;3.20;;;;;;;18.35;82.07;101166.16;3613495;39;20047;-66
2023/09/28 03:02:05;;;;;;;6.10;3.53;;;;;;;18.32;82.07;101173.59;3612227;39;20412;-66
2023/09/28 03:04:31;;;;;;;3.50;3.20;;;;;;;18.28;82.11;101172.16;3613851;39;20052;-68
2023/09/28 03:06:58;;;;;;;6.18;3.67;;;;;;;18.29;82.50;101179.31;3613919;39;20050;-66
2023/09/28 03:09:24;;;;;;;4.28;3.20;;;;;;;18.29;82.46;101184.75;3613184;39;20054;-66
2023/09/28 03:11:50;;;;;;;4.70;3.35;;;;;;;18.26;82.66;101184.19;3613121;39;20305;-66
2023/09/28 03:14:16;;;;;;;4.75;3.63;;;;;;;18.19;82.89;101177.56;3617153;39;20121;-66
2023/09/28 03:16:42;;;;;;;6.28;3.53;;;;;;;18.21;83.00;101187.31;3613789;39;20104;-67
2023/09/28 03:19:08;;;;;;;4.05;3.65;;;;;;;18.19;82.98;101192.03;3611800;39;20122;-66
2023/09/28 03:21:35;;;;;;;5.10;4.00;;;;;;;18.14;83.30;101180.69;3613354;39;20108;-68
2023/09/28 03:24:01;;;;;;;4.93;3.80;;;;;;;18.18;83.09;101193.03;3615008;39;20054;-66
2023/09/28 03:26:31;;;;;;;4.10;3.50;;;;;;;18.12;83.88;101188.13;3614879;39;20070;-66
2023/09/28 03:28:57;;;;;;;4.35;3.40;;;;;;;18.13;84.43;101195.28;3613544;39;20046;-67
2023/09/28 03:31:27;;;;;;;4.75;3.80;;;;;;;17.98;83.97;101180.28;3614288;39;20313;-66
2023/09/28 03:33:54;;;;;;;9.27;6.47;;;;;;;18.08;84.25;101197.56;3615026;39;20529;-66
2023/09/28 03:36:21;;;;;;;7.25;5.18;;;;;;;18.07;84.87;101206.69;3612882;39;20115;-67
2023/09/28 03:38:47;;;;;;;7.20;3.70;;;;;;;18.06;84.62;101200.41;3617632;39;20057;-67
2023/09/28 03:41:14;;;;;;;5.97;3.65;;;;;;;18.03;84.81;101210.69;3616504;39;20062;-65
2023/09/28 03:43:42;;;;;;;7.25;3.53;;;;;;;18.02;84.30;101219.84;3614058;39;20430;-67
2023/09/28 03:46:08;;;;;;;5.55;3.45;;;;;;;18.03;85.02;101227.00;3614301;39;20058;-68
2023/09/28 03:48:34;;;;;;;5.68;3.47;;;;;;;17.98;85.51;101230.16;3614309;39;20112;-67
2023/09/28 03:51:00;;;;;;;7.30;3.65;;;;;;;17.97;84.58;101235.69;3615829;39;20054;-69
2023/09/28 03:53:26;;;;;;;3.80;3.40;;;;;;;17.95;85.51;101237.69;3618307;39;20051;-67
2023/09/28 03:55:52;;;;;;;4.15;3.55;;;;;;;17.94;85.66;101234.09;3615121;39;20055;-67
2023/09/28 03:58:18;;;;;;;5.20;3.42;;;;;;;17.95;85.22;101222.25;3614855;39;20404;-67
2023/09/28 04:00:44;;;;;;;4.30;3.83;;;;;;;17.96;85.26;101217.66;3615674;39;20063;-67
2023/09/28 04:03:11;;;;;;;4.45;3.70;;;;;;;17.99;86.25;101222.84;3616845;39;20293;-66
2023/09/28 04:05:38;;;;;;;4.68;3.50;;;;;;;17.99;85.84;101231.88;3613845;39;20132;-67
2023/09/28 04:08:06;;;;;;;6.00;3.90;;;;;;;17.98;85.21;101223.81;3616419;39;20123;-66
2023/09/28 04:10:33;;;;;;;5.72;4.10;;;;;;;17.96;86.09;101232.13;3613539;39;20043;-66
2023/09/28 04:13:01;;;;;;;4.90;4.03;;;;;;;17.94;85.75;101239.53;3613881;39;20062;-66
2023/09/28 04:15:27;;;;;;;8.80;3.80;;;;;;;17.92;85.94;101241.56;3618452;39;20057;-68
2023/09/28 04:17:53;;;;;;;5.43;3.78;;;;;;;17.88;86.08;101234.63;3622287;39;20614;-66
2023/09/28 04:20:19;;;;;;;4.35;3.67;;;;;;;17.83;85.64;101237.75;3618608;39;20127;-67
2023/09/28 04:22:45;;;;;;;4.80;3.90;;;;;;;17.81;86.53;101245.19;3617379;39;20058;-67
2023/09/28 04:25:11;;;;;;;5.60;4.25;;;;;;;17.78;86.48;101231.00;3614304;39;20050;-66
2023/09/28 04:27:37;;;;;;;5.50;3.85;;;;;;;17.71;86.76;101232.47;3614918;39;20080;-67
2023/09/28 04:30:04;;;;;;;8.23;4.30;;;;;;;17.53;87.06;101218.59;3611914;39;20090;-67
2023/09/28 04:32:31;;;;;;;6.18;4.55;;;;;;;17.60;87.55;101236.09;3613940;39;20067;-66
2023/09/28 04:34:57;;;;;;;5.63;4.15;;;;;;;17.54;87.93;101231.22;3617481;39;20051;-67
2023/09/28 04:37:25;;;;;;;4.65;3.95;;;;;;;17.34;87.19;101220.13;3613753;39;20050;-67
2023/09/28 04:39:53;;;;;;;4.97;3.80;;;;;;;17.47;88.44;101246.28;3614695;39;20343;-67
2023/09/28 04:42:20;;;;;;;7.65;4.30;;;;;;;17.42;87.49;101243.97;3615253;39;20054;-66
2023/09/28 04:44:46;;;;;;;5.97;4.13;;;;;;;17.39;88.37;101250.53;3617650;39;20067;-68
2023/09/28 04:47:14;;;;;;;5.25;3.97;;;;;;;17.35;88.41;101264.50;3614355;39;20056;-67
2023/09/28 04:49:42;;;;;;;5.00;4.07;;;;;;;17.33;89.40;101264.63;3614981;39;20050;-67
2023/09/28 04:52:10;;;;;;;10.75;4.60;;;;;;;17.33;89.48;101263.75;3611977;39;20050;-67
2023/09/28 04:54:36;;;;;;;7.35;4.55;;;;;;;17.28;89.54;101253.25;3617154;39;20078;-67
2023/09/28 04:57:02;;;;;;;5.35;4.22;;;;;;;17.30;88.87;101253.16;3615137;39;20108;-67
2023/09/28 04:59:27;;;;;;;6.07;4.40;;;;;;;17.28;89.80;101260.56;3617827;39;20405;-67
2023/09/28 05:01:53;;;;;;;7.05;4.50;;;;;;;17.28;88.52;101268.72;3617068;39;20061;-66
2023/09/28 05:04:19;;;;;;;6.65;4.53;;;;;;;17.26;89.32;101274.28;3614720;39;20077;-68
2023/09/28 05:06:44;;;;;;;7.22;4.53;;;;;;;17.25;88.80;101290.69;3613276;39;20284;-68
2023/09/28 05:09:13;;;;;;;10.05;4.38;;;;;;;17.25;89.03;101296.13;3613890;39;20046;-67
2023/09/28 05:11:39;;;;;;;6.47;4.50;;;;;;;17.23;88.02;101295.41;3613709;39;20164;-67
2023/09/28 05:14:05;;;;;;;9.65;4.75;;;;;;;17.18;88.04;101290.34;3615040;39;20309;-66
2023/09/28 05:16:31;;;;;;;10.30;4.15;;;;;;;17.18;87.75;101303.94;3613422;39;20123;-67
2023/09/28 05:18:57;;;;;;;9.15;4.45;;;;;;;17.17;88.13;101294.06;3614850;39;20292;-67
2023/09/28 05:21:24;;;;;;;7.47;4.15;;;;;;;17.16;87.71;101309.50;3606361;39;20404;-67
2023/09/28 05:23:50;;;;;;;6.53;4.15;;;;;;;17.16;88.16;101308.66;3614619;39;20365;-68
2023/09/28 05:26:16;;;;;;;7.88;4.28;;;;;;;17.12;87.99;101316.16;3615549;39;20067;-67
2023/09/28 05:28:42;;;;;;;12.05;5.20;;;;;;;17.12;87.35;101323.44;3615562;39;20073;-67
2023/09/28 05:31:08;;;;;;;6.13;3.97;;;;;;;17.09;87.44;101323.69;3614525;39;20062;-67
2023/09/28 05:33:34;;;;;;;6.35;4.28;;;;;;;17.10;87.39;101339.03;3614925;39;20074;-67
2023/09/28 05:36:00;;;;;;;6.88;3.80;;;;;;;17.08;88.03;101333.69;3615472;39;20093;-66
2023/09/28 05:38:25;;;;;;;9.15;4.28;;;;;;;17.06;87.08;101329.38;3615017;39;20050;-67
2023/09/28 05:40:51;;;;;;;8.65;3.72;;;;;;;17.04;87.68;101339.50;3616186;39;20055;-67
2023/09/28 05:43:16;;;;;;;10.02;4.28;;;;;;;16.99;87.62;101333.59;3614786;39;20303;-66
2023/09/28 05:45:42;;;;;;;8.93;3.88;;;;;;;16.99;87.15;101339.00;3608600;39;20046;-67
2023/09/28 05:48:08;;;;;;;6.93;4.00;;;;;;;16.99;86.63;101344.44;3618420;39;20049;-67
2023/09/28 05:50:33;;;;;;;5.45;3.40;;;;;;;16.92;86.90;101331.34;3618300;39;20089;-67
2023/09/28 05:53:00;;;;;;;7.45;3.40;;;;;;;16.97;86.15;101341.88;3616392;39;20065;-66
2023/09/28 05:55:26;;;;;;;9.60;3.95;;;;;;;16.98;86.07;101345.44;3614536;39;20043;-66
2023/09/28 05:57:53;;;;;;;7.57;3.75;;;;;;;16.98;85.83;101353.59;3617310;39;20284;-67
2023/09/28 06:00:19;;;;;;;8.50;3.80;;;;;;;16.96;85.57;101366.41;3613894;39;20333;-66
2023/09/28 06:02:44;;;;;;;7.75;4.13;;;;;;;16.97;85.52;101368.13;3618460;39;20086;-66
2023/09/28 06:05:10;;;;;;;9.13;3.60;;;;;;;16.98;85.55;101375.31;3617806;39;20324;-66
2023/09/28 06:07:37;;;;;;;9.73;3.85;;;;;;;16.98;85.23;101375.31;3615429;39;20059;-67
2023/09/28 06:10:03;;;;;;;7.30;3.28;;;;;;;16.98;85.76;101375.31;3614675;39;20913;-66
2023/09/28 06:12:29;;;;;;;7.45;3.88;;;;;;;16.97;85.14;101365.41;3614522;39;20314;-67
2023/09/28 06:14:55;;;;;;;8.95;3.60;;;;;;;16.97;85.04;101358.16;3613795;39;20086;-66
2023/09/28 06:17:21;;;;;;;6.38;3.40;;;;;;;16.98;85.04;101364.47;3614300;39;20050;-66
2023/09/28 06:19:46;;;;;;;8.23;3.55;;;;;;;16.97;85.54;101369.03;3616544;39;20077;-67
2023/09/28 06:22:12;;;;;;;9.25;3.90;;;;;;;16.99;85.28;101366.16;3615726;39;20384;-68
2023/09/28 06:24:38;;;;;;;6.28;3.05;;;;;;;16.97;84.61;101370.84;3618861;39;20058;-68
2023/09/28 06:27:05;;;;;;;12.05;4.03;;;;;;;16.94;84.74;101380.13;3619081;39;20285;-67
2023/09/28 06:29:32;;;;;;;9.48;3.67;;;;;;;16.94;84.49;101381.00;3612889;39;20289;-67
2023/09/28 06:31:58;;;;;;;10.48;3.58;;;;;;;16.94;85.28;101386.44;3613298;39;20055;-65
2023/09/28 06:34:24;;;;;;;10.07;4.10;;;;;;;16.96;85.46;101390.88;3614518;39;20059;-67
2023/09/28 06:36:50;;;;;;;10.35;3.33;;;;;;;16.97;84.38;101398.91;3616574;39;20061;-68
2023/09/28 06:39:15;;;;;;;9.30;3.50;;;;;;;16.96;84.31;101401.72;3616400;39;20329;-67
2023/09/28 06:41:41;;;;;;;15.43;4.07;;;;;;;17.01;84.04;101402.22;3616889;39;20097;-67
2023/09/28 06:44:08;;;;;;;10.55;3.70;;;;;;;16.97;83.78;101389.88;3617918;39;20340;-66
2023/09/28 06:46:34;;;;;;;13.15;4.05;;;;;;;17.06;83.75;101402.72;3604031;39;20123;-67
2023/09/28 06:48:59;;;;;;;9.70;3.33;;;;;;;17.07;82.99;101397.19;3613301;39;20047;-66
2023/09/28 06:51:26;;;;;;;9.65;3.67;;;;;;;17.09;82.76;101402.47;3616380;39;20061;-67
2023/09/28 06:53:51;;;;;;;11.32;4.20;;;;;;;17.13;82.65;101425.72;3614086;39;20060;-66
2023/09/28 06:56:17;;;;;;;11.27;3.40;;;;;;;17.18;82.30;101423.47;3616852;39;20066;-66
2023/09/28 06:58:43;;;;;;;14.25;4.00;;;;;;;17.24;82.17;101427.56;3618406;39;20330;-66
2023/09/28 07:01:09;;;;;;;12.98;3.53;;;;;;;17.08;81.95;101387.16;3616201;39;20062;-66
2023/09/28 07:03:34;;;;;;;13.20;3.67;;;;;;;17.35;81.41;101427.56;3613904;39;20054;-66
2023/09/28 07:06:00;;;;;;;13.43;3.70;;;;;;;17.44;81.91;101436.81;3614182;39;20070;-66
2023/09/28 07:08:26;;;;;;;16.90;4.50;;;;;;;17.48;81.13;101438.31;3621269;39;20039;-67
2023/09/28 07:10:52;;;;;;;15.88;4.47;;;;;;;17.63;80.69;101437.91;3622735;39;20111;-67
2023/09/28 07:13:18;;;;;;;12.95;3.80;;;;;;;17.76;79.97;101435.06;3611685;39;20066;-67
2023/09/28 07:15:43;;;;;;;12.13;4.10;;;;;;;17.88;80.34;101419.59;3615669;39;20090;-67
2023/09/28 07:18:09;;;;;;;12.68;4.15;;;;;;;18.00;79.52;101424.00;3612553;39;20300;-66
2023/09/28 07:20:38;;;;;;;17.10;4.28;;;;;;;18.05;78.99;101437.25;3614602;39;20066;-67
2023/09/28 07:23:04;;;;;;;11.95;3.90;;;;;;;18.13;78.82;101432.00;3612072;39;20363;-67
2023/09/28 07:25:30;;;;;;;16.88;4.00;;;;;;;18.15;77.91;101416.44;3614257;39;20057;-67
2023/09/28 07:27:56;;;;;;;14.05;4.25;;;;;;;18.20;79.15;101422.31;3614845;39;20050;-68
2023/09/28 07:30:25;;;;;;;15.27;4.00;;;;;;;18.25;77.89;101421.94;3615204;39;20093;-67
2023/09/28 07:32:51;;;;;;;13.13;3.75;;;;;;;18.24;77.70;101434.69;3612238;39;20055;-67
2023/09/28 07:35:18;;;;;;;16.50;4.47;;;;;;;18.27;78.14;101444.47;3615520;39;20074;-67
2023/09/28 07:37:44;;;;;;;15.45;3.70;;;;;;;18.31;77.72;101459.53;3614988;39;20059;-66
2023/09/28 07:40:12;;;;;;;19.75;4.15;;;;;;;18.39;78.26;101450.72;3611533;39;20073;-67
2023/09/28 07:42:44;;;;;;;13.50;4.10;;;;;;;18.52;77.74;101456.81;3614205;39;20369;-67
2023/09/28 07:45:12;;;;;;;13.07;4.25;;;;;;;18.66;76.74;101459.25;3615988;39;20307;-67
2023/09/28 07:47:39;;;;;;;14.88;4.00;;;;;;;18.76;76.21;101452.03;3613584;39;20090;-68
2023/09/28 07:50:06;;;;;;;16.85;4.18;;;;;;;18.91;74.77;101449.84;3602574;39;20634;-66
2023/09/28 07:52:32;;;;;;;14.52;4.15;;;;;;;19.11;74.61;101469.91;3618555;39;20296;-67
2023/09/28 07:54:58;;;;;;;17.50;3.90;;;;;;;19.22;73.51;101468.97;3613025;39;20050;-66
2023/09/28 07:57:23;;;;;;;17.15;4.70;;;;;;;19.30;72.47;101473.75;3614636;39;20397;-67
2023/09/28 07:59:49;;;;;;;18.02;4.28;;;;;;;19.44;72.23;101470.63;3617303;39;20332;-68
2023/09/28 08:02:15;;;;;;;14.93;4.03;;;;;;;19.49;71.66;101466.50;3605230;39;20119;-67
2023/09/28 08:04:40;;;;;;;14.75;4.47;;;;;;;19.62;71.45;101473.59;3615563;39;20054;-68
2023/09/28 08:07:06;;;;;;;16.50;3.95;;;;;;;19.75;70.99;101490.59;3601061;39;20293;-66
2023/09/28 08:09:33;;;;;;;15.27;4.28;;;;;;;19.85;70.01;101485.19;3620435;39;20050;-67
2023/09/28 08:11:59;;;;;;;15.82;4.22;;;;;;;19.92;69.49;101483.63;3615947;39;20394;-67
2023/09/28 08:14:25;;;;;;;15.38;4.20;;;;;;;19.95;68.85;101488.81;3606053;39;20234;-67
2023/09/28 08:16:51;;;;;;;17.02;4.32;;;;;;;20.00;68.41;101489.25;3618103;39;20494;-67
2023/09/28 08:19:19;;;;;;;12.57;3.67;;;;;;;20.09;68.32;101495.75;3616056;39;20071;-65
2023/09/28 08:21:45;;;;;;;15.23;4.20;;;;;;;20.09;67.57;101482.94;3615756;39;20098;-67
2023/09/28 08:24:11;;;;;;;20.10;3.88;;;;;;;20.23;67.21;101497.19;3616226;39;20050;-67
2023/09/28 08:26:37;;;;;;;15.80;4.00;;;;;;;20.30;66.82;101490.19;3609537;39;20409;-66
2023/09/28 08:29:03;;;;;;;15.50;3.72;;;;;;;20.34;66.46;101470.63;3614561;39;20055;-66
2023/09/28 08:31:31;;;;;;;16.60;3.88;;;;;;;20.57;65.89;101493.09;3617425;39;20043;-66
2023/09/28 08:34:01;;;;;;;12.98;3.45;;;;;;;20.59;64.85;101502.00;3622385;39;20305;-66
2023/09/28 08:36:27;;;;;;;17.08;4.40;;;;;;;20.48;64.40;101465.75;3620596;39;20349;-66
2023/09/28 08:38:54;;;;;;;16.13;4.20;;;;;;;20.78;64.67;101508.47;3614907;39;20421;-65
2023/09/28 08:41:46;;;;;;;16.77;3.45;;;;;;;20.78;63.44;101506.59;3615858;39;20106;-66
2023/09/28 08:44:13;;;;;;;13.68;4.15;;;;;;;20.79;63.33;101521.13;3613494;39;20043;-65
2023/09/28 08:46:40;;;;;;;16.17;4.25;;;;;;;20.81;62.14;101522.72;3616027;39;20062;-65
2023/09/28 08:49:09;;;;;;;15.48;3.60;;;;;;;20.82;61.33;101518.97;3615963;39;20301;-66
2023/09/28 08:51:41;;;;;;;14.85;3.78;;;;;;;20.80;61.66;101531.03;3614690;39;20373;-65
2023/09/28 08:54:07;;;;;;;14.63;4.35;;;;;;;20.80;62.21;101528.31;3616297;39;20039;-65
2023/09/28 08:56:37;;;;;;;17.05;4.18;;;;;;;20.87;62.96;101545.88;3619036;39;20054;-66
2023/09/28 08:59:04;;;;;;;14.35;4.03;;;;;;;20.81;61.07;101541.00;3617322;39;20367;-64
2023/09/28 09:01:32;;;;;;;16.80;4.78;;;;;;;20.76;62.04;101535.09;3620043;39;20077;-66
2023/09/28 09:03:59;;;;;;;12.98;3.88;;;;;;;20.71;62.63;101530.06;3618167;39;20059;-65
2023/09/28 09:06:31;;;;;;;14.23;4.10;;;;;;;20.60;62.41;101513.78;3619355;39;20353;-65
2023/09/28 09:09:06;;;;;;;13.25;3.92;;;;;;;20.79;62.47;101541.13;3620307;39;20051;-65
2023/09/28 09:11:37;;;;;;;17.88;4.65;;;;;;;20.84;60.91;101538.81;3616860;39;20047;-65
2023/09/28 09:14:03;;;;;;;13.43;3.90;;;;;;;20.75;60.47;101544.28;3616642;39;20304;-65
2023/09/28 09:16:30;;;;;;;13.43;3.65;;;;;;;20.71;60.78;101545.56;3618890;39;20057;-66
2023/09/28 09:18:57;;;;;;;15.18;3.58;;;;;;;20.74;61.12;101553.47;3617456;39;20053;-65
2023/09/28 09:21:24;;;;;;;15.20;4.00;;;;;;;20.84;60.45;101541.56;3617112;39;20054;-65
2023/09/28 09:24:04;;;;;;;11.57;3.78;;;;;;;20.84;59.49;101543.44;3616288;39;20055;-65
2023/09/28 09:26:45;;;;;;;12.73;3.55;;;;;;;20.83;60.69;101544.41;3605796;39;20059;-66
2023/09/28 09:29:14;;;;;;;14.90;4.05;;;;;;;20.81;60.12;101541.84;3613924;39;20066;-65
2023/09/28 09:31:42;;;;;;;16.02;4.03;;;;;;;20.75;59.77;101539.69;3617140;39;20082;-66
2023/09/28 09:34:18;;;;;;;17.65;4.40;;;;;;;20.72;60.36;101547.31;3618363;39;20075;-65
2023/09/28 09:36:58;;;;;;;16.83;3.88;;;;;;;20.77;59.89;101553.19;3616349;39;20403;-66
2023/09/28 09:39:30;;;;;;;14.13;3.70;;;;;;;20.83;59.56;101544.41;3614070;39;21148;-65
2023/09/28 09:41:58;;;;;;;18.95;4.13;;;;;;;20.85;59.09;101526.03;3615930;39;20039;-66
2023/09/28 09:44:26;;;;;;;16.25;4.25;;;;;;;21.19;59.40;101536.50;3620997;39;20065;-65
2023/09/28 09:46:55;;;;;;;13.10;3.50;;;;;;;21.42;58.43;101545.25;3615709;39;20470;-65
2023/09/28 09:49:24;;;;;;;16.67;4.43;;;;;;;21.56;57.45;101550.22;3614365;39;20370;-66
2023/09/28 09:51:51;;;;;;;13.38;3.92;;;;;;;21.81;58.86;101548.69;3615863;39;20135;-66
2023/09/28 09:54:20;;;;;;;13.10;3.80;;;;;;;21.97;56.22;101559.00;3614135;39;20066;-67
2023/09/28 09:56:51;;;;;;;12.07;3.00;;;;;;;22.01;55.84;101561.31;3616098;39;20418;-65
2023/09/28 09:59:20;;;;;;;16.48;4.32;;;;;;;21.97;56.15;101565.34;3615508;39;20441;-65
2023/09/28 10:01:52;;;;;;;14.38;3.80;;;;;;;21.97;56.05;101554.38;3615571;39;20578;-65
2023/09/28 10:04:26;;;;;;;14.18;3.75;;;;;;;22.01;57.07;101549.47;3616837;39;20723;-65
2023/09/28 10:06:56;;;;;;;17.58;3.88;;;;;;;22.14;55.06;101558.22;3615678;39;20083;-66
2023/09/28 10:09:23;;;;;;;16.08;3.55;;;;;;;22.32;54.99;101547.31;3613650;39;20092;-64
2023/09/28 10:11:50;;;;;;;16.63;3.35;;;;;;;22.46;54.29;101546.78;3617418;39;20084;-66
2023/09/28 10:14:20;;;;;;;16.77;3.78;;;;;;;22.53;53.46;101546.19;3616629;39;20063;-66
2023/09/28 10:16:53;;;;;;;15.25;4.32;;;;;;;22.58;53.46;101524.63;3619351;39;20236;-65
2023/09/28 10:19:22;;;;;;;14.48;3.53;;;;;;;22.76;53.52;101527.38;3614502;39;20091;-65
2023/09/28 10:21:51;;;;;;;12.48;3.65;;;;;;;22.80;52.45;101507.69;3617116;39;20051;-65
2023/09/28 10:24:17;;;;;;;13.98;3.25;;;;;;;22.97;52.47;101503.28;3616774;39;20127;-65
2023/09/28 10:26:52;;;;;;;12.98;3.42;;;;;;;23.08;52.44;101518.59;3616248;39;20066;-65
2023/09/28 10:29:28;;;;;;;13.63;3.30;;;;;;;23.25;51.96;101525.94;3613010;39;20051;-65
2023/09/28 10:31:55;;;;;;;15.25;3.85;;;;;;;23.32;52.27;101516.03;3613691;39;20039;-64
2023/09/28 10:34:24;;;;;;;13.85;3.80;;;;;;;23.31;51.59;101517.06;3614463;39;20179;-64
2023/09/28 10:37:10;;;;;;;11.23;3.38;;;;;;;23.30;51.36;101522.69;3613658;39;20062;-66
2023/09/28 10:39:38;;;;;;;12.82;3.25;;;;;;;23.38;53.19;101529.13;3613886;39;20053;-66
2023/09/28 10:42:13;;;;;;;14.23;3.47;;;;;;;23.54;51.66;101520.13;3617669;39;20046;-67
2023/09/28 10:44:48;;;;;;;17.88;4.25;;;;;;;23.70;52.63;101516.63;3616267;39;20057;-64
2023/09/28 10:47:14;;;;;;;12.55;3.65;;;;;;;23.59;51.33;101514.97;3613639;39;20059;-66
2023/09/28 10:49:40;;;;;;;13.25;3.30;;;;;;;23.76;52.09;101528.84;3610470;39;20039;-65
2023/09/28 10:52:10;;;;;;;12.82;3.40;;;;;;;23.81;52.51;101530.06;3614447;39;20069;-65
2023/09/28 10:54:37;;;;;;;13.02;3.95;;;;;;;23.82;51.49;101534.53;3616815;39;20286;-65
2023/09/28 10:57:02;;;;;;;14.43;3.40;;;;;;;23.67;51.77;101538.88;3611624;39;20387;-65
2023/09/28 10:59:29;;;;;;;13.10;3.40;;;;;;;23.48;51.60;101539.13;3614403;39;20062;-65
2023/09/28 11:01:54;;;;;;;12.23;3.47;;;;;;;23.38;52.41;101533.75;3603633;39;20049;-65
2023/09/28 11:04:21;;;;;;;13.43;3.45;;;;;;;23.20;52.68;101539.25;3614437;39;20050;-65
2023/09/28 11:06:49;;;;;;;17.33;3.40;;;;;;;23.14;53.07;101537.16;3618072;39;20296;-65
2023/09/28 11:09:18;;;;;;;14.68;3.47;;;;;;;22.96;52.61;101531.69;3615766;39;20070;-65
2023/09/28 11:11:44;;;;;;;13.02;3.38;;;;;;;23.05;52.78;101544.44;3613965;39;20360;-66
2023/09/28 11:14:12;;;;;;;12.50;3.55;;;;;;;23.19;52.97;101551.28;3615673;39;20310;-65
2023/09/28 11:16:49;;;;;;;16.30;4.15;;;;;;;23.27;52.44;101521.13;3616041;39;20042;-64
2023/09/28 11:19:15;;;;;;;12.65;3.60;;;;;;;23.69;52.16;101544.22;3614786;39;20082;-66
2023/09/28 11:21:42;;;;;;;12.23;3.33;;;;;;;23.85;51.58;101536.97;3614486;39;20069;-65
2023/09/28 11:24:08;;;;;;;11.95;3.63;;;;;;;23.84;50.68;101550.84;3617471;39;20277;-65
2023/09/28 11:26:35;;;;;;;13.48;3.15;;;;;;;23.72;50.51;101547.50;3616665;39;20066;-65
2023/09/28 11:29:01;;;;;;;11.93;3.17;;;;;;;23.53;50.97;101536.72;3618075;39;20084;-67